Time;durP1;ratioP1;P1;durP2;ratioP2;P2;SDS_P1;SDS_P2;PMS_P1;PMS_P2;Temp;Humidity;BMP_temperature;BMP_pressure;BME280_temperature;BME280_humidity;BME280_pressure;Samples;Min_cycle;Max_cycle;Signal;HPM_P1;HPM_P2
2024/01/15 00:02:06;;;;;;;1.50;0.50;;;2.20;99.90;;;;;;5111828;28;20124;-85
2024/01/15 00:04:38;;;;;;;2.72;0.43;;;1.80;99.90;;;;;;5112502;28;20538;-84
2024/01/15 00:07:04;;;;;;;9.27;0.68;;;2.40;99.90;;;;;;5112301;28;20185;-83
2024/01/15 00:09:30;;;;;;;6.88;0.50;;;2.10;99.90;;;;;;5112275;28;20036;-83
2024/01/15 00:11:56;;;;;;;4.03;0.52;;;2.00;99.90;;;;;;5113451;28;20043;-83
2024/01/15 00:14:22;;;;;;;6.00;0.50;;;1.70;99.90;;;;;;5111774;28;20075;-84
2024/01/15 00:16:50;;;;;;;6.15;0.95;;;2.20;99.90;;;;;;5095272;28;20050;-84
2024/01/15 00:19:16;;;;;;;6.90;0.90;;;1.50;99.90;;;;;;5112191;28;20407;-83
2024/01/15 00:21:42;;;;;;;6.97;1.00;;;1.90;99.90;;;;;;5111929;28;20131;-83
2024/01/15 00:24:08;;;;;;;9.55;1.02;;;2.00;99.90;;;;;;5112300;28;20540;-85
2024/01/15 00:26:33;;;;;;;4.15;0.50;;;1.30;99.90;;;;;;5113203;28;20060;-84
2024/01/15 00:28:59;;;;;;;5.18;0.40;;;1.40;99.90;;;;;;5112746;28;20047;-83
2024/01/15 00:31:25;;;;;;;5.05;0.40;;;2.00;99.90;;;;;;5112024;28;20123;-84
2024/01/15 00:33:50;;;;;;;4.90;1.35;;;1.40;99.90;;;;;;5112512;28;20458;-84
2024/01/15 00:36:16;;;;;;;13.18;1.88;;;1.40;99.90;;;;;;5113263;28;20047;-83
2024/01/15 00:38:43;;;;;;;12.50;0.68;;;1.40;99.90;;;;;;5113245;28;20036;-83
2024/01/15 00:41:09;;;;;;;5.57;0.80;;;1.30;99.90;;;;;;5094451;28;20032;-84
2024/01/15 00:43:34;;;;;;;9.00;0.80;;;1.40;99.90;;;;;;5113168;28;20500;-84
2024/01/15 00:46:02;;;;;;;10.98;0.95;;;1.90;99.90;;;;;;5112161;28;20088;-84
2024/01/15 00:48:28;;;;;;;11.60;1.30;;;1.50;99.90;;;;;;5113353;28;20161;-84
2024/01/15 00:50:54;;;;;;;14.63;1.13;;;1.70;99.90;;;;;;5113199;28;20515;-83
2024/01/15 00:53:22;;;;;;;13.93;1.40;;;1.60;99.90;;;;;;5111602;28;20047;-83
2024/01/15 00:55:48;;;;;;;17.95;1.90;;;1.70;99.90;;;;;;5112391;28;20400;-84
2024/01/15 00:58:14;;;;;;;19.70;1.55;;;2.60;99.90;;;;;;5114552;28;20490;-83
2024/01/15 01:00:40;;;;;;;15.85;1.27;;;1.70;99.90;;;;;;5116698;28;20055;-83
2024/01/15 01:03:06;;;;;;;10.27;1.30;;;1.70;99.90;;;;;;5115869;28;20452;-84
2024/01/15 01:05:33;;;;;;;9.57;1.25;;;3.00;99.90;;;;;;5115469;28;20116;-84
2024/01/15 01:07:58;;;;;;;9.40;1.38;;;1.70;99.90;;;;;;5116832;28;20039;-84
2024/01/15 01:10:24;;;;;;;7.90;0.90;;;1.90;99.90;;;;;;5098525;28;20505;-83
2024/01/15 01:12:50;;;;;;;8.63;1.20;;;1.90;99.90;;;;;;5115264;28;20560;-84
2024/01/15 01:15:15;;;;;;;18.30;1.48;;;2.30;99.90;;;;;;5116824;28;20549;-84
2024/01/15 01:17:41;;;;;;;13.30;1.13;;;2.40;99.90;;;;;;5116779;28;20043;-83
2024/01/15 01:20:09;;;;;;;10.23;0.88;;;2.70;99.90;;;;;;5116608;28;20044;-83
2024/01/15 01:22:37;;;;;;;9.05;1.05;;;1.90;99.90;;;;;;5116577;28;20051;-82
2024/01/15 01:25:03;;;;;;;10.27;1.50;;;1.80;99.90;;;;;;5114790;28;20058;-83
2024/01/15 01:27:29;;;;;;;11.43;0.93;;;1.90;99.90;;;;;;5114956;28;20044;-85
2024/01/15 01:29:54;;;;;;;7.93;1.08;;;2.10;99.90;;;;;;5114814;28;20091;-83
2024/01/15 01:32:20;;;;;;;11.15;1.45;;;1.90;99.90;;;;;;5116450;28;20031;-83
2024/01/15 01:34:46;;;;;;;12.75;1.85;;;2.90;99.90;;;;;;5116368;28;20090;-83
2024/01/15 01:37:13;;;;;;;13.60;1.42;;;2.10;99.90;;;;;;5116223;28;20429;-83
2024/01/15 01:39:39;;;;;;;14.85;2.38;;;1.90;99.90;;;;;;5097549;28;20404;-83
2024/01/15 01:42:05;;;;;;;15.07;1.98;;;1.90;99.90;;;;;;5114753;28;20039;-83
2024/01/15 01:44:31;;;;;;;16.23;2.00;;;2.90;99.90;;;;;;5114790;28;20050;-83
2024/01/15 01:46:58;;;;;;;13.50;1.35;;;3.30;99.90;;;;;;5132021;27;20134;-83
2024/01/15 01:49:25;;;;;;;18.63;1.75;;;3.10;99.90;;;;;;5114766;28;20440;-83
2024/01/15 01:51:51;;;;;;;18.95;1.33;;;2.70;99.90;;;;;;5115146;28;20043;-83
2024/01/15 01:54:18;;;;;;;15.27;1.85;;;2.20;99.90;;;;;;5115869;28;20135;-83
2024/01/15 01:56:45;;;;;;;12.13;1.55;;;2.30;99.90;;;;;;5114314;28;20047;-84
2024/01/15 01:59:12;;;;;;;19.70;2.20;;;2.90;99.90;;;;;;5113946;28;20047;-83
2024/01/15 02:01:39;;;;;;;15.18;1.52;;;2.30;99.90;;;;;;5115904;28;20059;-84
2024/01/15 02:04:04;;;;;;;12.73;1.73;;;3.10;99.90;;;;;;5097087;28;20044;-83
2024/01/15 02:06:30;;;;;;;13.85;1.50;;;3.50;99.90;;;;;;5115860;28;20043;-83
2024/01/15 02:08:56;;;;;;;14.13;1.30;;;2.30;99.90;;;;;;5115138;28;20049;-83
2024/01/15 02:11:22;;;;;;;9.18;1.30;;;2.60;99.90;;;;;;5115490;28;20047;-84
2024/01/15 02:13:48;;;;;;;8.63;1.00;;;2.50;99.90;;;;;;5115141;28;20039;-83
2024/01/15 02:16:13;;;;;;;7.93;1.67;;;2.80;99.90;;;;;;5114439;28;20084;-82
2024/01/15 02:18:42;;;;;;;12.95;1.67;;;3.50;99.90;;;;;;5115681;28;20040;-83
2024/01/15 02:21:09;;;;;;;18.23;2.15;;;2.30;99.90;;;;;;5113925;28;20118;-83
2024/01/15 02:23:34;;;;;;;18.45;2.13;;;2.50;99.90;;;;;;5115630;28;20460;-83
2024/01/15 02:26:01;;;;;;;14.60;1.58;;;2.60;99.90;;;;;;5114573;28;20067;-83
2024/01/15 02:28:26;;;;;;;17.58;1.75;;;3.30;99.90;;;;;;5114599;27;20070;-83
2024/01/15 02:30:52;;;;;;;17.35;1.73;;;3.10;99.90;;;;;;5114365;28;20090;-83
2024/01/15 02:33:18;;;;;;;6.50;0.73;;;3.00;99.90;;;;;;5114313;28;20043;-83
2024/01/15 02:35:43;;;;;;;4.68;0.52;;;2.90;99.90;;;;;;5113952;28;20522;-84
2024/01/15 02:38:09;;;;;;;4.15;0.60;;;3.10;99.90;;;;;;5114244;28;20048;-83
2024/01/15 02:40:35;;;;;;;8.05;0.70;;;3.40;99.90;;;;;;5115193;28;20407;-84
2024/01/15 02:43:01;;;;;;;3.40;0.60;;;3.60;99.90;;;;;;5096615;28;20043;-84
2024/01/15 02:45:27;;;;;;;6.50;0.70;;;3.00;99.90;;;;;;5113276;28;20066;-84
2024/01/15 02:47:52;;;;;;;9.07;1.13;;;4.10;99.90;;;;;;5113719;28;20155;-84
2024/01/15 02:50:18;;;;;;;9.68;0.68;;;2.90;99.90;;;;;;5113401;28;20156;-83
2024/01/15 02:52:44;;;;;;;5.38;0.75;;;2.70;99.90;;;;;;5114806;28;20036;-84
2024/01/15 02:55:10;;;;;;;10.05;0.80;;;2.90;99.90;;;;;;5114895;28;20122;-83
2024/01/15 02:57:35;;;;;;;3.97;0.57;;;3.50;99.90;;;;;;5113774;28;20032;-82
2024/01/15 03:00:01;;;;;;;6.43;0.52;;;3.00;99.90;;;;;;5113327;28;20067;-83
2024/01/15 03:02:27;;;;;;;7.30;0.70;;;3.00;99.90;;;;;;5114684;28;20118;-85
2024/01/15 03:04:53;;;;;;;9.85;1.25;;;3.10;99.90;;;;;;5114202;28;20043;-83
2024/01/15 03:07:18;;;;;;;5.30;0.52;;;4.10;99.90;;;;;;5114733;28;20043;-84
2024/01/15 03:09:44;;;;;;;10.35;0.88;;;3.50;99.90;;;;;;5112888;28;20073;-84
2024/01/15 03:12:11;;;;;;;9.65;0.77;;;4.10;99.90;;;;;;5112324;28;20040;-85
2024/01/15 03:14:36;;;;;;;9.85;1.08;;;3.40;99.90;;;;;;5093872;28;20179;-84
2024/01/15 03:17:02;;;;;;;6.97;1.20;;;2.30;99.90;;;;;;5102592;28;20547;-84
2024/01/15 03:19:28;;;;;;;13.98;2.05;;;2.70;99.90;;;;;;5112266;28;20046;-84
2024/01/15 03:21:54;;;;;;;14.85;1.83;;;2.60;99.90;;;;;;5112362;28;20032;-83
2024/01/15 03:24:20;;;;;;;12.45;1.15;;;3.30;99.90;;;;;;5112966;28;20093;-84
2024/01/15 03:26:46;;;;;;;8.27;0.82;;;3.00;99.90;;;;;;5112324;28;20446;-84
2024/01/15 03:29:12;;;;;;;17.58;1.63;;;3.30;99.90;;;;;;5112675;28;20051;-83
2024/01/15 03:31:37;;;;;;;15.25;2.03;;;3.20;99.90;;;;;;5114096;28;20044;-84
2024/01/15 03:34:03;;;;;;;12.85;1.35;;;3.10;99.90;;;;;;5113444;28;20035;-83
2024/01/15 03:36:29;;;;;;;12.23;1.60;;;2.30;99.90;;;;;;5113904;28;20392;-84
2024/01/15 03:38:55;;;;;;;8.65;1.73;;;2.50;99.90;;;;;;5095589;28;20050;-84
2024/01/15 03:41:20;;;;;;;16.58;1.95;;;2.20;99.90;;;;;;5112047;28;20044;-84
2024/01/15 03:43:46;;;;;;;25.20;2.72;;;2.90;99.90;;;;;;5113338;28;20050;-84
2024/01/15 03:46:12;;;;;;;17.50;2.67;;;3.10;99.90;;;;;;5112239;28;20066;-83
2024/01/15 03:48:38;;;;;;;16.13;1.83;;;2.40;99.90;;;;;;5112777;28;20145;-83
2024/01/15 03:51:04;;;;;;;20.05;2.20;;;2.50;99.90;;;;;;5112478;28;20483;-83
2024/01/15 03:53:29;;;;;;;13.73;1.95;;;2.50;99.90;;;;;;5113773;28;20092;-84
2024/01/15 03:55:55;;;;;;;23.27;1.80;;;3.60;99.90;;;;;;5094827;28;20538;-83
2024/01/15 03:58:21;;;;;;;10.77;1.27;;;2.60;99.90;;;;;;5111818;28;20051;-83
2024/01/15 04:00:47;;;;;;;15.43;1.67;;;2.80;99.90;;;;;;5116708;28;20048;-84
2024/01/15 04:03:12;;;;;;;11.68;1.30;;;2.80;99.90;;;;;;5096066;28;20039;-84
2024/01/15 04:05:38;;;;;;;14.77;1.05;;;2.70;99.90;;;;;;5112175;28;20044;-83
2024/01/15 04:08:04;;;;;;;3.90;0.90;;;2.80;99.90;;;;;;5111927;28;20047;-84
2024/01/15 04:10:30;;;;;;;16.08;1.20;;;2.90;99.90;;;;;;5095278;28;20120;-83
2024/01/15 04:12:56;;;;;;;10.45;1.00;;;3.80;99.90;;;;;;5112531;28;20078;-83
2024/01/15 04:15:22;;;;;;;11.80;1.45;;;3.40;99.90;;;;;;5112074;28;20096;-83
2024/01/15 04:17:48;;;;;;;9.43;1.35;;;2.20;99.90;;;;;;5113545;28;20048;-84
2024/01/15 04:20:13;;;;;;;16.02;1.92;;;3.80;99.90;;;;;;5113263;28;20054;-83
2024/01/15 04:22:39;;;;;;;8.48;1.65;;;3.00;99.90;;;;;;5112287;28;20032;-84
2024/01/15 04:25:05;;;;;;;8.02;1.33;;;3.90;99.90;;;;;;5113441;28;20044;-83
2024/01/15 04:27:31;;;;;;;11.63;1.10;;;2.90;99.90;;;;;;5111730;28;20040;-82
2024/01/15 04:29:57;;;;;;;11.55;2.00;;;3.80;99.90;;;;;;5112137;28;20214;-83
2024/01/15 04:32:22;;;;;;;15.30;1.73;;;4.30;99.90;;;;;;5115081;28;20058;-83
2024/01/15 04:34:48;;;;;;;11.05;1.48;;;2.60;99.90;;;;;;5115687;28;20438;-82
2024/01/15 04:37:14;;;;;;;15.30;1.92;;;2.80;99.90;;;;;;5115882;28;20510;-83
2024/01/15 04:39:40;;;;;;;14.15;1.67;;;2.70;99.90;;;;;;5117007;28;20043;-84
2024/01/15 04:42:05;;;;;;;15.82;1.70;;;3.40;99.90;;;;;;5116731;28;20050;-83
2024/01/15 04:44:31;;;;;;;10.98;1.48;;;2.70;99.90;;;;;;5117455;28;20468;-84
2024/01/15 04:46:57;;;;;;;14.13;1.00;;;2.60;99.90;;;;;;5116725;28;20081;-83
2024/01/15 04:49:22;;;;;;;19.77;2.00;;;3.00;99.90;;;;;;5117188;28;20071;-82
2024/01/15 04:51:48;;;;;;;9.20;1.10;;;2.40;99.90;;;;;;5115782;28;20040;-83
2024/01/15 04:54:17;;;;;;;12.77;1.25;;;2.70;99.90;;;;;;5115474;28;20053;-83
2024/01/15 04:56:44;;;;;;;9.23;0.98;;;2.30;99.90;;;;;;5124286;27;20130;-83
2024/01/15 04:59:10;;;;;;;11.38;1.00;;;2.30;99.90;;;;;;5100452;28;20403;-83
2024/01/15 05:01:36;;;;;;;13.73;1.33;;;3.00;99.90;;;;;;5115398;28;20052;-83
2024/01/15 05:04:02;;;;;;;11.18;1.17;;;2.20;99.90;;;;;;5116569;28;20412;-83
2024/01/15 05:06:28;;;;;;;8.05;0.73;;;2.20;99.90;;;;;;5115503;28;20051;-83
2024/01/15 05:08:53;;;;;;;13.82;0.90;;;2.20;99.90;;;;;;5115203;28;20044;-83
2024/01/15 05:11:19;;;;;;;8.82;0.95;;;2.20;99.90;;;;;;5115700;28;20412;-83
2024/01/15 05:13:45;;;;;;;9.63;1.15;;;2.10;99.90;;;;;;5115499;28;20039;-83
2024/01/15 05:16:10;;;;;;;17.10;1.30;;;2.00;99.90;;;;;;5115398;28;20050;-83
2024/01/15 05:18:37;;;;;;;17.58;1.90;;;3.10;99.90;;;;;;5116409;28;20058;-83
2024/01/15 05:21:03;;;;;;;10.95;1.48;;;3.30;99.90;;;;;;5116457;28;20047;-82
2024/01/15 05:23:30;;;;;;;16.70;1.60;;;2.40;99.90;;;;;;5115506;28;20461;-83
2024/01/15 05:25:56;;;;;;;18.48;2.13;;;2.20;99.90;;;;;;5123368;27;20048;-83
2024/01/15 05:28:22;;;;;;;20.67;1.98;;;2.30;99.90;;;;;;5105553;28;20031;-83
2024/01/15 05:30:50;;;;;;;12.05;1.50;;;2.40;99.90;;;;;;5115114;28;20047;-83
2024/01/15 05:33:16;;;;;;;7.72;1.13;;;2.30;99.90;;;;;;5114500;28;20126;-83
2024/01/15 05:35:41;;;;;;;14.48;1.65;;;3.20;99.90;;;;;;5097726;28;20548;-83
2024/01/15 05:38:07;;;;;;;13.63;1.75;;;2.70;99.90;;;;;;5097407;28;20039;-83
2024/01/15 05:40:33;;;;;;;13.50;2.28;;;1.70;99.90;;;;;;5114460;28;20043;-82
2024/01/15 05:42:58;;;;;;;10.05;1.63;;;2.30;99.90;;;;;;5114077;28;20403;-83
2024/01/15 05:45:26;;;;;;;7.95;1.73;;;2.90;99.90;;;;;;5115022;28;20048;-83
2024/01/15 05:47:52;;;;;;;12.75;1.40;;;2.80;99.90;;;;;;5114458;28;20052;-82
2024/01/15 05:50:18;;;;;;;14.50;1.60;;;2.20;99.90;;;;;;5116078;28;20046;-83
2024/01/15 05:52:44;;;;;;;12.93;1.42;;;2.20;99.90;;;;;;5116320;27;20048;-82
2024/01/15 05:55:09;;;;;;;12.52;1.67;;;2.50;99.90;;;;;;5113495;28;20492;-82
2024/01/15 05:57:36;;;;;;;13.85;1.70;;;3.10;99.90;;;;;;5115989;28;20039;-82
2024/01/15 06:00:02;;;;;;;18.95;1.63;;;2.00;99.90;;;;;;5097401;28;20055;-81
2024/01/15 06:02:28;;;;;;;17.55;1.75;;;2.10;99.90;;;;;;5114557;28;20063;-83
2024/01/15 06:04:54;;;;;;;22.60;2.47;;;2.20;99.90;;;;;;5114555;28;20035;-83
2024/01/15 06:07:19;;;;;;;21.73;2.42;;;3.30;99.90;;;;;;5115431;28;20035;-83
2024/01/15 06:09:45;;;;;;;15.80;1.77;;;2.20;99.90;;;;;;5114297;28;20043;-83
2024/01/15 06:12:10;;;;;;;13.77;1.55;;;2.20;99.90;;;;;;5115766;28;20070;-83
2024/01/15 06:14:36;;;;;;;14.00;1.85;;;2.10;99.90;;;;;;5114180;28;20054;-86
2024/01/15 06:17:02;;;;;;;15.13;1.95;;;2.10;99.90;;;;;;5114598;28;20388;-82
2024/01/15 06:19:28;;;;;;;12.98;2.05;;;2.10;99.90;;;;;;5113334;28;20054;-83
2024/01/15 06:21:54;;;;;;;10.98;1.70;;;2.00;99.90;;;;;;5115323;28;20048;-82
2024/01/15 06:24:20;;;;;;;29.48;2.25;;;1.90;99.90;;;;;;5114045;28;20046;-83
2024/01/15 06:26:46;;;;;;;16.30;1.35;;;1.90;99.90;;;;;;5097006;28;20039;-83
2024/01/15 06:29:12;;;;;;;15.68;1.70;;;1.80;99.90;;;;;;5114476;28;20055;-82
2024/01/15 06:31:38;;;;;;;13.13;1.27;;;1.70;99.90;;;;;;5115176;28;20040;-83
2024/01/15 06:34:03;;;;;;;15.65;1.98;;;1.70;99.90;;;;;;5114088;28;20040;-81
2024/01/15 06:36:29;;;;;;;19.13;1.75;;;1.70;99.90;;;;;;5114841;28;20043;-82
2024/01/15 06:38:55;;;;;;;11.23;1.10;;;1.60;99.90;;;;;;5114026;28;20043;-81
2024/01/15 06:41:21;;;;;;;12.32;1.52;;;1.60;99.90;;;;;;5114587;28;20040;-82
2024/01/15 06:43:48;;;;;;;11.52;1.40;;;1.80;99.90;;;;;;5114993;28;20042;-82
2024/01/15 06:46:23;;;;;;;11.88;1.70;;;1.60;99.90;;;;;;5114497;28;20519;-82
2024/01/15 06:48:49;;;;;;;9.80;1.52;;;2.20;99.90;;;;;;5114790;27;20035;-84
2024/01/15 06:51:16;;;;;;;8.90;1.60;;;1.50;99.90;;;;;;5100728;28;20032;-84
2024/01/15 06:53:41;;;;;;;9.07;1.30;;;1.50;99.90;;;;;;5103705;28;20050;-83
2024/01/15 06:56:08;;;;;;;15.20;1.27;;;1.60;99.90;;;;;;5100642;28;20036;-84
2024/01/15 06:58:33;;;;;;;10.13;1.83;;;1.50;99.90;;;;;;5113159;28;20070;-84
2024/01/15 07:00:59;;;;;;;16.15;1.30;;;1.50;99.90;;;;;;5095807;28;20062;-84
2024/01/15 07:03:25;;;;;;;9.40;1.92;;;1.80;99.90;;;;;;5113298;28;20528;-83
2024/01/15 07:05:51;;;;;;;13.20;1.40;;;1.40;99.90;;;;;;5096224;28;20043;-84
2024/01/15 07:08:17;;;;;;;11.43;1.40;;;2.40;99.90;;;;;;5113513;28;20047;-83
2024/01/15 07:10:42;;;;;;;15.63;1.48;;;1.30;99.90;;;;;;5113251;28;20048;-84
2024/01/15 07:13:09;;;;;;;10.73;1.35;;;1.30;99.90;;;;;;5114465;28;20039;-83
2024/01/15 07:15:34;;;;;;;8.10;0.93;;;1.10;99.90;;;;;;5112892;28;20044;-83
2024/01/15 07:18:00;;;;;;;12.98;1.08;;;1.30;99.90;;;;;;5113256;28;20045;-83
2024/01/15 07:20:26;;;;;;;9.50;0.80;;;2.40;99.90;;;;;;5114350;28;20055;-82
2024/01/15 07:22:51;;;;;;;5.72;1.10;;;1.30;99.90;;;;;;5113027;28;20051;-83
2024/01/15 07:25:17;;;;;;;4.65;0.57;;;1.60;99.90;;;;;;5113996;28;20044;-84
2024/01/15 07:27:44;;;;;;;7.35;0.80;;;1.40;99.90;;;;;;5114225;28;20119;-82
2024/01/15 07:30:11;;;;;;;3.67;0.60;;;1.30;99.90;;;;;;5112901;28;20054;-85
2024/01/15 07:32:37;;;;;;;6.85;1.15;;;1.30;99.90;;;;;;5114052;28;20454;-83
2024/01/15 07:35:04;;;;;;;2.25;0.47;;;1.30;99.90;;;;;;5113071;28;20040;-84
2024/01/15 07:37:29;;;;;;;6.38;0.75;;;1.30;99.90;;;;;;5113037;28;20047;-84
2024/01/15 07:39:55;;;;;;;8.10;0.80;;;1.70;99.90;;;;;;5095845;28;20466;-84
2024/01/15 07:42:20;;;;;;;7.65;0.80;;;0.30;99.90;;;;;;5114184;28;20038;-85
2024/01/15 07:44:46;;;;;;;5.10;0.82;;;1.70;99.90;;;;;;5113004;28;20044;-84
2024/01/15 07:47:12;;;;;;;3.28;0.68;;;1.20;99.90;;;;;;5113282;28;20050;-84
2024/01/15 07:49:38;;;;;;;4.57;0.65;;;1.80;99.90;;;;;;5112012;28;20159;-83
2024/01/15 07:52:05;;;;;;;4.30;0.60;;;0.70;99.90;;;;;;5113710;28;20438;-83
2024/01/15 07:54:31;;;;;;;9.50;0.85;;;1.10;99.90;;;;;;5113874;28;20088;-83
2024/01/15 07:56:59;;;;;;;3.63;0.68;;;1.10;99.90;;;;;;5112156;28;20043;-84
2024/01/15 07:59:26;;;;;;;8.27;1.00;;;1.00;99.90;;;;;;5113746;28;20051;-83
2024/01/15 08:01:52;;;;;;;5.82;0.68;;;1.70;99.90;;;;;;5112243;28;20055;-83
2024/01/15 08:04:18;;;;;;;5.05;0.50;;;1.50;99.90;;;;;;5111938;28;20051;-83
2024/01/15 08:06:44;;;;;;;4.60;0.60;;;1.10;99.90;;;;;;5113170;28;20542;-83
2024/01/15 08:09:10;;;;;;;8.48;0.90;;;1.20;99.90;;;;;;5113187;28;20523;-84
2024/01/15 08:11:40;;;;;;;6.25;0.77;;;1.30;99.90;;;;;;5113745;28;20377;-83
2024/01/15 08:14:06;;;;;;;6.72;0.85;;;1.30;99.90;;;;;;5111922;28;20035;-83
2024/01/15 08:16:31;;;;;;;9.77;0.80;;;2.00;99.90;;;;;;5095400;28;20439;-83
2024/01/15 08:18:57;;;;;;;6.03;0.88;;;1.20;99.90;;;;;;5095161;28;20432;-82
2024/01/15 08:21:22;;;;;;;3.03;0.70;;;2.30;99.90;;;;;;5113235;28;20168;-84
2024/01/15 08:23:48;;;;;;;10.10;0.80;;;2.00;99.90;;;;;;5113838;28;20035;-85
2024/01/15 08:26:14;;;;;;;7.90;0.85;;;1.40;99.90;;;;;;5112180;28;20039;-86
2024/01/15 08:28:39;;;;;;;10.88;1.67;;;1.10;99.90;;;;;;5112194;28;20054;-85
2024/01/15 08:31:05;;;;;;;7.95;1.10;;;1.10;99.90;;;;;;5094747;28;20044;-86
2024/01/15 08:33:30;;;;;;;13.00;1.30;;;2.20;99.90;;;;;;5112959;28;20096;-86
2024/01/15 08:35:56;;;;;;;9.05;1.40;;;1.10;99.90;;;;;;5111911;28;20047;-87
2024/01/15 08:38:22;;;;;;;10.25;1.20;;;1.20;99.90;;;;;;5111676;28;20054;-86
2024/01/15 08:40:50;;;;;;;16.63;1.23;;;2.70;99.90;;;;;;5112221;28;20108;-86
2024/01/15 08:43:15;;;;;;;7.43;1.00;;;2.60;99.90;;;;;;5112137;28;20043;-86
2024/01/15 08:45:41;;;;;;;9.13;0.90;;;1.60;99.90;;;;;;5111930;28;20051;-84
2024/01/15 08:48:06;;;;;;;9.65;1.25;;;1.10;99.90;;;;;;5113239;28;20075;-85
2024/01/15 08:50:33;;;;;;;14.52;1.65;;;2.30;99.90;;;;;;5111470;28;20465;-84
2024/01/15 08:52:59;;;;;;;7.35;0.90;;;1.10;99.90;;;;;;5112348;28;20039;-84
2024/01/15 08:55:24;;;;;;;6.88;0.90;;;1.10;99.90;;;;;;5112433;28;20039;-84
2024/01/15 08:57:50;;;;;;;9.73;0.80;;;1.40;99.90;;;;;;5110760;28;20119;-84
2024/01/15 09:00:17;;;;;;;5.15;0.80;;;1.00;99.90;;;;;;5112037;28;20036;-84
2024/01/15 09:02:43;;;;;;;6.00;0.50;;;1.10;99.90;;;;;;5094697;28;20052;-85
2024/01/15 09:05:09;;;;;;;8.32;0.65;;;1.80;99.90;;;;;;5112801;28;20117;-84
2024/01/15 09:07:35;;;;;;;8.27;0.50;;;2.00;99.90;;;;;;5113214;28;20039;-85
2024/01/15 09:10:01;;;;;;;4.60;0.90;;;0.50;99.90;;;;;;5113317;28;20043;-84
2024/01/15 09:12:27;;;;;;;4.07;0.60;;;1.80;99.90;;;;;;5112493;28;20036;-88
2024/01/15 09:14:53;;;;;;;3.47;0.82;;;2.40;99.90;;;;;;5111415;28;20036;-86
2024/01/15 09:17:21;;;;;;;4.70;0.70;;;1.50;99.90;;;;;;5111217;28;20047;-84
2024/01/15 09:19:47;;;;;;;10.55;1.33;;;1.20;99.90;;;;;;5098544;28;20065;-85
2024/01/15 09:22:14;;;;;;;5.60;0.90;;;2.20;99.90;;;;;;5115395;28;20472;-83
2024/01/15 09:24:41;;;;;;;8.57;0.95;;;1.20;99.90;;;;;;5115759;28;20043;-85
2024/01/15 09:27:07;;;;;;;7.22;0.88;;;2.20;99.90;;;;;;5132251;27;20039;-83
2024/01/15 09:29:33;;;;;;;7.68;1.30;;;1.90;99.90;;;;;;5116701;28;20044;-83
2024/01/15 09:31:58;;;;;;;7.03;1.30;;;1.50;99.90;;;;;;5118114;27;20048;-83
2024/01/15 09:34:24;;;;;;;12.93;1.27;;;1.50;99.90;;;;;;5094655;28;20070;-84
2024/01/15 09:36:50;;;;;;;6.85;0.73;;;0.90;99.90;;;;;;5094625;28;20044;-83
2024/01/15 09:39:16;;;;;;;8.35;1.00;;;2.00;99.90;;;;;;5110051;28;20047;-85
2024/01/15 09:41:42;;;;;;;8.65;1.30;;;2.20;99.90;;;;;;5115291;28;20047;-84
2024/01/15 09:44:10;;;;;;;5.70;0.60;;;1.20;99.90;;;;;;5115026;28;20079;-84
2024/01/15 09:46:35;;;;;;;7.43;0.77;;;1.60;99.90;;;;;;5114829;28;20043;-83
2024/01/15 09:49:01;;;;;;;7.95;1.02;;;2.20;99.90;;;;;;5115116;28;20500;-84
2024/01/15 09:51:31;;;;;;;7.22;0.85;;;1.20;99.90;;;;;;5114248;28;20039;-85
2024/01/15 09:53:57;;;;;;;6.00;1.55;;;2.50;99.90;;;;;;5115242;28;20040;-86
2024/01/15 09:56:23;;;;;;;10.20;0.88;;;1.90;99.90;;;;;;5115037;28;20052;-86
2024/01/15 09:58:52;;;;;;;11.30;1.63;;;1.70;99.90;;;;;;5132045;27;20055;-85
2024/01/15 10:01:20;;;;;;;10.20;0.80;;;1.90;99.90;;;;;;5115795;28;20060;-86
2024/01/15 10:03:46;;;;;;;5.97;0.95;;;1.30;99.90;;;;;;5114299;28;20035;-86
2024/01/15 10:06:17;;;;;;;7.00;0.75;;;2.10;99.90;;;;;;5096938;28;20064;-85
2024/01/15 10:08:47;;;;;;;4.65;0.73;;;1.00;99.90;;;;;;5097656;28;20047;-85
2024/01/15 10:11:13;;;;;;;6.13;0.90;;;2.10;99.90;;;;;;5113802;28;20044;-84
2024/01/15 10:13:39;;;;;;;8.00;0.88;;;2.50;99.90;;;;;;5114654;28;20048;-85
2024/01/15 10:16:05;;;;;;;6.35;1.30;;;2.00;99.90;;;;;;5114336;28;20044;-85
2024/01/15 10:18:32;;;;;;;2.40;0.60;;;1.50;99.90;;;;;;5114595;28;20464;-85
2024/01/15 10:20:58;;;;;;;1.70;0.65;;;1.60;99.90;;;;;;5114199;28;20487;-86
2024/01/15 10:23:24;;;;;;;1.23;0.32;;;1.60;99.90;;;;;;5115584;28;20035;-84
2024/01/15 10:25:53;;;;;;;2.63;0.30;;;2.40;99.90;;;;;;5113886;28;20069;-88
2024/01/15 10:28:20;;;;;;;2.83;0.40;;;1.60;99.90;;;;;;5113252;28;20130;-85
2024/01/15 10:30:46;;;;;;;4.40;0.40;;;2.50;99.90;;;;;;5114353;28;20373;-86
2024/01/15 10:33:11;;;;;;;2.30;0.40;;;1.80;99.90;;;;;;5114468;28;20059;-85
2024/01/15 10:35:38;;;;;;;5.80;0.30;;;1.60;99.90;;;;;;5114154;28;20514;-84
2024/01/15 10:38:05;;;;;;;3.92;0.40;;;3.10;99.90;;;;;;5115493;28;20172;-86
2024/01/15 10:40:31;;;;;;;4.63;0.57;;;0.90;99.90;;;;;;5096857;28;20393;-84
2024/01/15 10:42:57;;;;;;;2.63;0.60;;;2.00;99.90;;;;;;5097141;28;20040;-86
2024/01/15 10:45:23;;;;;;;3.78;0.60;;;1.90;99.90;;;;;;5114997;28;20044;-85
2024/01/15 10:47:49;;;;;;;6.47;0.65;;;2.20;99.90;;;;;;5114113;28;20523;-84
2024/01/15 10:50:15;;;;;;;3.38;0.40;;;2.10;99.90;;;;;;5114295;28;20078;-84
2024/01/15 10:52:42;;;;;;;4.20;0.50;;;2.40;99.90;;;;;;5117938;28;20052;-84
2024/01/15 10:55:09;;;;;;;6.13;0.90;;;1.70;99.90;;;;;;5121283;28;20051;-84
2024/01/15 10:57:37;;;;;;;4.32;1.08;;;1.70;99.90;;;;;;5119400;28;20470;-87
2024/01/15 11:00:05;;;;;;;9.10;0.90;;;2.80;99.90;;;;;;5113985;28;20545;-85
2024/01/15 11:02:34;;;;;;;7.32;0.55;;;1.70;99.90;;;;;;5114420;28;20459;-84
2024/01/15 11:05:00;;;;;;;6.90;0.70;;;2.80;99.90;;;;;;5114547;28;20118;-83
2024/01/15 11:07:26;;;;;;;5.82;0.47;;;3.00;99.90;;;;;;5114816;28;20048;-83
2024/01/15 11:09:52;;;;;;;2.63;0.47;;;1.80;99.90;;;;;;5112508;28;20063;-84
2024/01/15 11:12:19;;;;;;;6.50;0.75;;;2.00;99.90;;;;;;5121852;27;20044;-83
2024/01/15 11:14:52;;;;;;;1.70;0.38;;;1.60;99.90;;;;;;5113256;28;20501;-83
2024/01/15 11:17:18;;;;;;;5.18;0.50;;;1.80;99.90;;;;;;5113041;28;20036;-84
2024/01/15 11:19:50;;;;;;;4.97;0.40;;;2.70;99.90;;;;;;5112835;28;20159;-83
2024/01/15 11:22:48;;;;;;;3.22;0.85;;;1.90;99.90;;;;;;5113010;28;20548;-83
2024/01/15 11:25:15;;;;;;;1.55;0.50;;;2.10;99.90;;;;;;5014036;28;20049;-83
2024/01/15 11:27:43;;;;;;;1.63;0.40;;;2.20;99.90;;;;;;4987702;28;20058;-83
2024/01/15 11:30:13;;;;;;;3.45;0.43;;;2.70;99.90;;;;;;5015233;28;20433;-83
2024/01/15 11:32:42;;;;;;;3.15;0.47;;;2.20;99.90;;;;;;5014932;28;20049;-83
2024/01/15 11:35:09;;;;;;;0.93;0.30;;;2.20;99.90;;;;;;4998417;28;20045;-83
2024/01/15 11:37:56;;;;;;;3.13;0.40;;;2.20;99.90;;;;;;5014863;28;20052;-84
2024/01/15 11:40:37;;;;;;;0.82;0.40;;;2.90;99.90;;;;;;5013770;28;20060;-85
2024/01/15 11:43:04;;;;;;;6.32;0.32;;;3.10;99.90;;;;;;5031410;28;20053;-85
2024/01/15 11:45:31;;;;;;;5.53;0.30;;;2.60;99.90;;;;;;5014834;28;20049;-83
2024/01/15 11:47:56;;;;;;;3.70;0.32;;;2.20;99.90;;;;;;5031212;28;20522;-84
2024/01/15 11:50:22;;;;;;;7.50;0.50;;;2.30;99.90;;;;;;5015035;28;20050;-84
2024/01/15 11:53:01;;;;;;;1.20;0.32;;;2.40;99.90;;;;;;5014698;28;20076;-84
2024/01/15 11:55:35;;;;;;;0.93;0.20;;;2.50;99.90;;;;;;5013869;28;20513;-84
2024/01/15 11:58:03;;;;;;;1.85;0.25;;;2.30;99.90;;;;;;5030882;28;20099;-83
2024/01/15 12:00:30;;;;;;;1.70;0.20;;;3.00;99.90;;;;;;5031013;28;20127;-83
2024/01/15 12:02:58;;;;;;;1.77;0.40;;;2.00;99.90;;;;;;5098055;28;20048;-83
2024/01/15 12:05:23;;;;;;;1.75;0.10;;;2.80;99.90;;;;;;5113583;28;20039;-82
2024/01/15 12:07:50;;;;;;;4.63;0.30;;;2.00;99.90;;;;;;5113642;28;20041;-83
2024/01/15 12:10:20;;;;;;;2.72;0.40;;;2.00;99.90;;;;;;5110928;28;20039;-83
2024/01/15 12:12:59;;;;;;;6.45;0.52;;;2.00;99.90;;;;;;5111985;28;20388;-84
2024/01/15 12:15:28;;;;;;;3.47;0.38;;;2.10;99.90;;;;;;5113288;28;20051;-84
2024/01/15 12:17:57;;;;;;;2.88;0.52;;;2.10;99.90;;;;;;5095263;28;20047;-84
2024/01/15 12:20:26;;;;;;;6.88;0.82;;;3.00;99.90;;;;;;5112157;28;20043;-83
2024/01/15 12:22:52;;;;;;;5.32;0.70;;;2.30;99.90;;;;;;5112746;28;20476;-83
2024/01/15 12:25:18;;;;;;;4.07;0.50;;;2.40;99.90;;;;;;5112545;28;20040;-84
2024/01/15 12:27:44;;;;;;;2.90;0.35;;;2.70;99.90;;;;;;5113206;28;20044;-82
2024/01/15 12:30:13;;;;;;;4.85;0.57;;;2.60;99.90;;;;;;5112656;28;20131;-83
2024/01/15 12:32:42;;;;;;;3.80;0.40;;;2.60;99.90;;;;;;5111992;28;20059;-83
2024/01/15 12:35:10;;;;;;;4.22;0.60;;;2.80;99.90;;;;;;5111594;28;20082;-83
2024/01/15 12:37:47;;;;;;;6.75;0.70;;;4.00;99.90;;;;;;5111563;28;20445;-82
2024/01/15 12:40:14;;;;;;;7.13;0.75;;;3.10;99.90;;;;;;5113527;28;20040;-83
2024/01/15 12:42:41;;;;;;;17.15;1.13;;;4.10;99.90;;;;;;5112262;28;20090;-83
2024/01/15 12:45:08;;;;;;;7.50;0.70;;;3.00;99.90;;;;;;5101731;28;20070;-85
2024/01/15 12:47:33;;;;;;;4.72;0.80;;;3.10;99.90;;;;;;5104447;28;20039;-82
2024/01/15 12:49:59;;;;;;;6.57;1.00;;;4.30;99.90;;;;;;5111784;28;20088;-82